Time;durP1;ratioP1;P1;durP2;ratioP2;P2;SDS_P1;SDS_P2;PMS_P1;PMS_P2;Temp;Humidity;BMP_temperature;BMP_pressure;BME280_temperature;BME280_humidity;BME280_pressure;Samples;Min_cycle;Max_cycle;Signal;HPM_P1;HPM_P2
2023/01/12 00:02:12;;;;;;;13.05;2.33;;;;;;;;;;5016138;28;20053;-77
2023/01/12 00:04:38;;;;;;;16.00;2.60;;;;;;;;;;5015716;28;20076;-77
2023/01/12 00:07:11;;;;;;;7.10;2.10;;;;;;;;;;5015649;28;20037;-76
2023/01/12 00:09:37;;;;;;;15.27;2.35;;;;;;;;;;5015338;28;20581;-76
2023/01/12 00:12:04;;;;;;;13.45;2.65;;;;;;;;;;5015681;28;20046;-76
2023/01/12 00:14:32;;;;;;;14.23;2.75;;;;;;;;;;5015277;28;20524;-76
2023/01/12 00:16:58;;;;;;;11.57;2.45;;;;;;;;;;5015781;28;20484;-76
2023/01/12 00:19:24;;;;;;;11.05;1.98;;;;;;;;;;5015124;28;20038;-76
2023/01/12 00:24:18;;;;;;;14.98;2.97;;;;;;;;;;5015068;28;20136;-76
2023/01/12 00:26:45;;;;;;;17.75;2.47;;;;;;;;;;5014753;28;20437;-76
2023/01/12 00:29:11;;;;;;;8.25;1.70;;;;;;;;;;5014995;28;20123;-76
2023/01/12 00:31:37;;;;;;;12.85;2.58;;;;;;;;;;5015463;28;20187;-76
2023/01/12 00:34:03;;;;;;;19.35;2.90;;;;;;;;;;5015137;28;20072;-76
2023/01/12 00:36:29;;;;;;;9.40;2.45;;;;;;;;;;5014618;28;20072;-76
2023/01/12 00:38:55;;;;;;;12.55;3.13;;;;;;;;;;5014598;28;20042;-76
2023/01/12 00:46:51;;;;;;;11.68;2.22;;;;;;;;;;5014291;28;20041;-76
2023/01/12 00:49:17;;;;;;;11.10;2.60;;;;;;;;;;5014775;28;20038;-77
2023/01/12 00:51:43;;;;;;;14.93;2.50;;;;;;;;;;5014948;28;20049;-76
2023/01/12 00:54:09;;;;;;;12.18;2.63;;;;;;;;;;5014690;28;20056;-76
2023/01/12 00:56:36;;;;;;;12.55;1.95;;;;;;;;;;5014765;28;20041;-76
2023/01/12 00:59:02;;;;;;;12.98;1.92;;;;;;;;;;5014733;28;20037;-76
2023/01/12 01:01:29;;;;;;;10.50;2.03;;;;;;;;;;5014664;28;20046;-76
2023/01/12 01:03:55;;;;;;;10.80;2.60;;;;;;;;;;5014855;28;20156;-76
2023/01/12 01:06:22;;;;;;;9.38;2.05;;;;;;;;;;5014622;28;20053;-76
2023/01/12 01:08:48;;;;;;;11.98;2.20;;;;;;;;;;5014541;28;20034;-76
2023/01/12 01:11:15;;;;;;;9.20;1.85;;;;;;;;;;5014520;28;20538;-76
2023/01/12 01:13:44;;;;;;;10.63;1.92;;;;;;;;;;5014804;28;20046;-76
2023/01/12 01:16:14;;;;;;;15.18;2.35;;;;;;;;;;5014228;28;20128;-76
2023/01/12 01:18:41;;;;;;;6.77;1.40;;;;;;;;;;5014232;28;20041;-76
2023/01/12 01:21:08;;;;;;;8.65;2.08;;;;;;;;;;5014462;28;20041;-76
2023/01/12 01:23:35;;;;;;;10.65;1.95;;;;;;;;;;5014110;28;20053;-76
2023/01/12 01:26:02;;;;;;;6.32;1.83;;;;;;;;;;5014447;28;20042;-76
2023/01/12 01:28:28;;;;;;;7.93;1.80;;;;;;;;;;5014266;28;20052;-76
2023/01/12 01:31:01;;;;;;;12.10;2.05;;;;;;;;;;5014049;28;20038;-76
2023/01/12 01:33:27;;;;;;;7.53;1.85;;;;;;;;;;5014223;28;20073;-76
2023/01/12 01:35:55;;;;;;;9.70;2.25;;;;;;;;;;5018144;28;20048;-76
2023/01/12 01:38:21;;;;;;;9.90;2.20;;;;;;;;;;5018071;28;20065;-76
2023/01/12 01:40:47;;;;;;;13.63;2.05;;;;;;;;;;5017816;28;20084;-76
2023/01/12 01:43:14;;;;;;;11.63;1.90;;;;;;;;;;5017854;28;20042;-76
2023/01/12 01:45:42;;;;;;;8.98;2.30;;;;;;;;;;5017677;28;20485;-76
2023/01/12 01:48:10;;;;;;;7.50;1.80;;;;;;;;;;5017961;28;20048;-76
2023/01/12 01:50:37;;;;;;;5.88;1.77;;;;;;;;;;5017651;28;20124;-76
2023/01/12 01:53:13;;;;;;;11.25;2.67;;;;;;;;;;5017951;28;20076;-76
2023/01/12 01:55:47;;;;;;;10.48;2.08;;;;;;;;;;5017784;28;20062;-76
2023/01/12 01:58:15;;;;;;;9.48;1.50;;;;;;;;;;5017965;28;20362;-76
2023/01/12 02:00:42;;;;;;;11.20;2.00;;;;;;;;;;5017684;28;20493;-76
2023/01/12 02:03:09;;;;;;;9.70;2.10;;;;;;;;;;5018075;28;20042;-76
2023/01/12 02:05:36;;;;;;;14.40;1.40;;;;;;;;;;5017946;28;20046;-76
2023/01/12 02:08:11;;;;;;;5.88;1.50;;;;;;;;;;5017372;28;20037;-76
2023/01/12 02:10:37;;;;;;;12.13;1.75;;;;;;;;;;5017671;28;20049;-76
2023/01/12 02:18:43;;;;;;;8.88;2.35;;;;;;;;;;5016881;28;20033;-76
2023/01/12 02:21:12;;;;;;;12.77;2.30;;;;;;;;;;5017380;28;20117;-76
2023/01/12 02:23:38;;;;;;;9.65;2.00;;;;;;;;;;5017054;28;20547;-76
2023/01/12 02:26:19;;;;;;;9.57;1.50;;;;;;;;;;5017221;28;20488;-76
2023/01/12 02:29:08;;;;;;;15.18;2.70;;;;;;;;;;5017391;28;20073;-76
2023/01/12 02:31:37;;;;;;;9.93;2.15;;;;;;;;;;5017403;28;20046;-76
2023/01/12 02:34:03;;;;;;;10.23;2.17;;;;;;;;;;5017223;28;20041;-76
2023/01/12 02:36:48;;;;;;;8.77;2.40;;;;;;;;;;5017579;28;20042;-76
2023/01/12 02:39:17;;;;;;;14.43;1.63;;;;;;;;;;5016915;28;20033;-76
2023/01/12 02:44:41;;;;;;;9.98;2.28;;;;;;;;;;5016192;28;20048;-76
2023/01/12 02:47:11;;;;;;;7.82;1.80;;;;;;;;;;5017128;28;20121;-76
2023/01/12 02:49:41;;;;;;;9.13;1.83;;;;;;;;;;5016867;28;20053;-76
2023/01/12 02:52:12;;;;;;;7.97;2.47;;;;;;;;;;5016800;28;20370;-76
2023/01/12 02:54:39;;;;;;;10.63;2.22;;;;;;;;;;5016401;28;20520;-76
2023/01/12 02:57:07;;;;;;;12.65;1.65;;;;;;;;;;5048798;28;20046;-76
2023/01/12 02:59:34;;;;;;;7.50;2.55;;;;;;;;;;5016570;28;20064;-76
2023/01/12 03:02:02;;;;;;;9.15;2.10;;;;;;;;;;5016553;28;20132;-77
2023/01/12 03:04:31;;;;;;;8.55;2.03;;;;;;;;;;5016523;28;20048;-77
2023/01/12 03:06:57;;;;;;;9.95;2.08;;;;;;;;;;5048061;28;20099;-77
2023/01/12 03:09:43;;;;;;;7.43;2.35;;;;;;;;;;5016260;28;20053;-77
2023/01/12 03:12:13;;;;;;;9.00;2.55;;;;;;;;;;5016039;28;20053;-76
2023/01/12 03:14:42;;;;;;;9.73;1.98;;;;;;;;;;5016011;28;20051;-77
2023/01/12 03:17:11;;;;;;;6.18;1.80;;;;;;;;;;5015973;28;20033;-77
2023/01/12 03:19:38;;;;;;;7.95;1.60;;;;;;;;;;5015926;28;20405;-77
2023/01/12 03:22:07;;;;;;;7.32;1.77;;;;;;;;;;5015905;28;20041;-77
2023/01/12 03:24:38;;;;;;;5.13;2.20;;;;;;;;;;5015610;28;20058;-76
2023/01/12 03:27:08;;;;;;;9.60;1.90;;;;;;;;;;5016101;28;20041;-76
2023/01/12 03:29:39;;;;;;;8.73;1.70;;;;;;;;;;5015851;28;20049;-77
2023/01/12 03:32:05;;;;;;;;;;;;;;;;;;5016406;28;20496;-77
2023/01/12 03:34:32;;;;;;;12.27;1.52;;;;;;;;;;5015939;28;19916;-77
2023/01/12 03:37:16;;;;;;;11.50;2.47;;;;;;;;;;5015620;28;20038;-76
2023/01/12 03:39:49;;;;;;;8.05;1.92;;;;;;;;;;5015575;28;20132;-77
2023/01/12 03:42:17;;;;;;;8.02;1.20;;;;;;;;;;5016152;28;20100;-77
2023/01/12 03:44:46;;;;;;;8.80;1.15;;;;;;;;;;5015766;28;20064;-77
2023/01/12 03:47:21;;;;;;;8.02;1.60;;;;;;;;;;5015735;28;20038;-77
2023/01/12 03:49:52;;;;;;;8.25;1.50;;;;;;;;;;5015420;28;20049;-77
2023/01/12 03:52:18;;;;;;;;;;;;;;;;;;5016138;28;20053;-77
2023/01/12 03:54:46;;;;;;;7.18;1.50;;;;;;;;;;5015583;28;20312;-76
2023/01/12 03:57:12;;;;;;;8.57;1.25;;;;;;;;;;5015310;28;20125;-76
2023/01/12 03:59:39;;;;;;;11.25;1.90;;;;;;;;;;5015225;28;20144;-76
2023/01/12 04:02:05;;;;;;;12.13;1.67;;;;;;;;;;5015793;28;20048;-76
2023/01/12 04:04:31;;;;;;;11.88;1.70;;;;;;;;;;5015138;28;20096;-76
2023/01/12 04:06:59;;;;;;;8.45;1.75;;;;;;;;;;5015442;28;20042;-76
2023/01/12 04:09:25;;;;;;;16.08;1.67;;;;;;;;;;5014864;28;20045;-76
2023/01/12 04:12:09;;;;;;;5.72;1.70;;;;;;;;;;5015261;28;20045;-76
2023/01/12 04:14:36;;;;;;;11.15;1.52;;;;;;;;;;5015277;28;20046;-76
2023/01/12 04:17:02;;;;;;;3.47;1.05;;;;;;;;;;5015173;28;20505;-76
2023/01/12 04:19:28;;;;;;;10.43;2.25;;;;;;;;;;5014903;28;20577;-76
2023/01/12 04:24:39;;;;;;;7.93;1.42;;;;;;;;;;5014628;28;20586;-76
2023/01/12 04:27:05;;;;;;;8.27;1.73;;;;;;;;;;5014853;28;20038;-76
2023/01/12 04:29:31;;;;;;;7.88;1.65;;;;;;;;;;5015064;28;20046;-76
2023/01/12 04:31:57;;;;;;;14.25;1.85;;;;;;;;;;5014923;28;20038;-76
2023/01/12 04:34:23;;;;;;;7.80;1.52;;;;;;;;;;5014999;28;20049;-76
2023/01/12 04:36:50;;;;;;;12.38;1.48;;;;;;;;;;5015045;28;20050;-75
2023/01/12 04:39:16;;;;;;;11.27;1.70;;;;;;;;;;5014565;28;20500;-76
2023/01/12 04:41:42;;;;;;;10.70;1.90;;;;;;;;;;5014900;28;20064;-76
2023/01/12 04:44:08;;;;;;;11.18;1.25;;;;;;;;;;5015037;28;20073;-76
2023/01/12 04:46:34;;;;;;;7.45;1.65;;;;;;;;;;5014549;28;20037;-76
2023/01/12 04:49:00;;;;;;;8.95;1.58;;;;;;;;;;5014928;28;20042;-76
2023/01/12 04:51:26;;;;;;;12.52;1.75;;;;;;;;;;5015221;28;20046;-76
2023/01/12 04:53:53;;;;;;;11.48;1.35;;;;;;;;;;5014778;28;20050;-77
2023/01/12 04:56:19;;;;;;;8.15;1.60;;;;;;;;;;5014657;28;20037;-76
2023/01/12 04:58:45;;;;;;;11.18;1.73;;;;;;;;;;5014913;28;20046;-77
2023/01/12 05:01:13;;;;;;;6.72;2.00;;;;;;;;;;5014722;28;20128;-76
2023/01/12 05:03:39;;;;;;;7.70;1.65;;;;;;;;;;5022921;28;20065;-76
2023/01/12 05:06:06;;;;;;;8.13;1.40;;;;;;;;;;5042883;28;20094;-76
2023/01/12 05:11:17;;;;;;;12.23;1.95;;;;;;;;;;5038562;28;20537;-76
2023/01/12 05:13:43;;;;;;;10.88;1.98;;;;;;;;;;5054926;28;20071;-74
2023/01/12 05:16:11;;;;;;;7.25;1.63;;;;;;;;;;5053033;28;20053;-75
2023/01/12 05:18:37;;;;;;;10.65;1.75;;;;;;;;;;5046343;28;20075;-75
2023/01/12 05:21:03;;;;;;;8.00;1.58;;;;;;;;;;5041610;28;20124;-74
2023/01/12 05:23:30;;;;;;;10.77;1.90;;;;;;;;;;5037436;28;20058;-75
2023/01/12 05:25:59;;;;;;;8.10;2.05;;;;;;;;;;5038132;28;20124;-74
2023/01/12 05:28:26;;;;;;;10.32;1.67;;;;;;;;;;5038394;28;20045;-74
2023/01/12 05:30:52;;;;;;;8.77;1.83;;;;;;;;;;5037838;28;20038;-74
2023/01/12 05:33:19;;;;;;;9.43;1.33;;;;;;;;;;5039886;28;20076;-74
2023/01/12 05:35:45;;;;;;;8.95;1.88;;;;;;;;;;5038167;28;20103;-75
2023/01/12 05:38:11;;;;;;;12.75;1.70;;;;;;;;;;5052118;28;20108;-76
2023/01/12 05:40:37;;;;;;;11.82;1.70;;;;;;;;;;5057875;28;20068;-76
2023/01/12 05:45:48;;;;;;;14.32;2.28;;;;;;;;;;5051002;28;20116;-76
2023/01/12 05:48:14;;;;;;;14.52;2.13;;;;;;;;;;5043735;28;20128;-77
2023/01/12 05:50:40;;;;;;;9.80;2.22;;;;;;;;;;5048304;28;20156;-75
2023/01/12 05:53:07;;;;;;;8.88;2.33;;;;;;;;;;5046444;28;20136;-76
2023/01/12 05:55:33;;;;;;;11.90;1.75;;;;;;;;;;5055246;28;20365;-77
2023/01/12 05:57:59;;;;;;;10.07;1.33;;;;;;;;;;5056689;28;20106;-77
2023/01/12 06:00:26;;;;;;;9.93;1.50;;;;;;;;;;5056731;28;20029;-77
2023/01/12 06:02:52;;;;;;;11.02;2.08;;;;;;;;;;5056480;28;20053;-76
2023/01/12 06:05:18;;;;;;;8.50;1.75;;;;;;;;;;5056664;28;20095;-77
2023/01/12 06:07:44;;;;;;;8.88;2.13;;;;;;;;;;5056119;28;20045;-75
2023/01/12 06:10:10;;;;;;;7.82;1.67;;;;;;;;;;5057369;28;20036;-75
2023/01/12 06:15:21;;;;;;;8.43;1.60;;;;;;;;;;5056962;28;20143;-75
2023/01/12 06:17:48;;;;;;;10.82;1.77;;;;;;;;;;5056407;28;20410;-75
2023/01/12 06:20:15;;;;;;;9.25;1.98;;;;;;;;;;5056514;28;20512;-74
2023/01/12 06:22:42;;;;;;;8.73;1.73;;;;;;;;;;5057328;28;20049;-74
2023/01/12 06:25:09;;;;;;;15.48;2.22;;;;;;;;;;5056781;28;20049;-75
2023/01/12 06:27:37;;;;;;;13.60;1.52;;;;;;;;;;5056629;28;20037;-74
2023/01/12 06:30:04;;;;;;;15.02;2.13;;;;;;;;;;5056952;28;20037;-74
2023/01/12 06:32:30;;;;;;;15.02;1.73;;;;;;;;;;5056765;28;20053;-74
2023/01/12 06:34:57;;;;;;;8.07;1.85;;;;;;;;;;5056545;28;20155;-74
2023/01/12 06:37:24;;;;;;;11.57;1.77;;;;;;;;;;5056259;28;20036;-73
2023/01/12 06:39:50;;;;;;;13.93;2.00;;;;;;;;;;5056638;28;20483;-74
2023/01/12 06:42:28;;;;;;;9.85;1.65;;;;;;;;;;5056991;28;20049;-74
2023/01/12 06:44:58;;;;;;;14.05;2.13;;;;;;;;;;5056439;28;20076;-73
2023/01/12 06:47:25;;;;;;;10.50;2.08;;;;;;;;;;5048081;28;20045;-73
2023/01/12 06:49:51;;;;;;;16.75;1.58;;;;;;;;;;5035651;28;20047;-73
2023/01/12 06:52:21;;;;;;;14.30;2.13;;;;;;;;;;5034317;28;20053;-73
2023/01/12 06:54:47;;;;;;;10.63;2.15;;;;;;;;;;5035542;28;20068;-73
2023/01/12 06:57:14;;;;;;;12.27;2.08;;;;;;;;;;5043560;28;20087;-74
2023/01/12 06:59:43;;;;;;;11.77;2.08;;;;;;;;;;5045938;28;20111;-74
2023/01/12 07:02:11;;;;;;;11.55;1.52;;;;;;;;;;5026443;28;20045;-73
2023/01/12 07:04:37;;;;;;;10.90;1.55;;;;;;;;;;5024671;28;20128;-73
2023/01/12 07:07:03;;;;;;;12.65;2.00;;;;;;;;;;5026683;28;20041;-73
2023/01/12 07:09:29;;;;;;;18.15;2.33;;;;;;;;;;5025291;28;20497;-74
2023/01/12 07:11:55;;;;;;;12.55;2.15;;;;;;;;;;5024650;28;20542;-74
2023/01/12 07:14:22;;;;;;;14.23;2.20;;;;;;;;;;5023901;28;20129;-73
2023/01/12 07:16:48;;;;;;;13.45;2.35;;;;;;;;;;5016346;28;20038;-72
2023/01/12 07:19:14;;;;;;;9.23;1.33;;;;;;;;;;5015953;28;20046;-73
2023/01/12 07:21:40;;;;;;;9.40;1.40;;;;;;;;;;5015767;28;20049;-74
2023/01/12 07:24:06;;;;;;;13.32;1.48;;;;;;;;;;5015300;28;20057;-74
2023/01/12 07:26:32;;;;;;;9.75;1.80;;;;;;;;;;5016166;28;20136;-73
2023/01/12 07:28:59;;;;;;;13.90;1.60;;;;;;;;;;5016087;28;20042;-73
2023/01/12 07:31:25;;;;;;;12.23;1.80;;;;;;;;;;5015175;28;20058;-73
2023/01/12 07:33:52;;;;;;;12.38;2.03;;;;;;;;;;5047960;28;20393;-73
2023/01/12 07:36:18;;;;;;;10.10;1.77;;;;;;;;;;5016199;28;20132;-73
2023/01/12 07:38:45;;;;;;;11.05;1.90;;;;;;;;;;5015760;28;20042;-74
2023/01/12 07:42:22;;;;;;;12.27;2.28;;;;;;;;;;5015577;28;20120;-73
2023/01/12 07:43:57;;;;;;;6.75;1.52;;;;;;;;;;5015326;28;20041;-73
2023/01/12 07:46:24;;;;;;;13.63;2.15;;;;;;;;;;5015752;28;20046;-73
2023/01/12 07:48:50;;;;;;;14.25;2.38;;;;;;;;;;5015762;28;20038;-73
2023/01/12 07:51:16;;;;;;;6.60;1.63;;;;;;;;;;5015650;28;20046;-74
2023/01/12 07:53:42;;;;;;;13.88;1.90;;;;;;;;;;5015445;28;20481;-74
2023/01/12 07:56:09;;;;;;;12.30;1.67;;;;;;;;;;5015599;28;20053;-73
2023/01/12 07:58:36;;;;;;;12.20;1.73;;;;;;;;;;5015584;28;20037;-73
2023/01/12 08:01:02;;;;;;;7.47;1.75;;;;;;;;;;5015663;28;20042;-73
2023/01/12 08:03:28;;;;;;;13.65;2.08;;;;;;;;;;5015637;28;20121;-73
2023/01/12 08:05:56;;;;;;;8.07;1.88;;;;;;;;;;5015437;28;20042;-73
2023/01/12 08:08:22;;;;;;;10.23;1.67;;;;;;;;;;5015251;28;20068;-73
2023/01/12 08:10:49;;;;;;;9.80;2.05;;;;;;;;;;5015904;28;20457;-73
2023/01/12 08:13:15;;;;;;;9.77;1.60;;;;;;;;;;5015675;28;20137;-74
2023/01/12 08:15:44;;;;;;;13.63;3.47;;;;;;;;;;5015291;28;20044;-73
2023/01/12 08:18:17;;;;;;;12.45;2.22;;;;;;;;;;5015246;28;20079;-73
2023/01/12 08:20:43;;;;;;;12.63;2.67;;;;;;;;;;5015399;28;20096;-73
2023/01/12 08:23:12;;;;;;;17.30;5.20;;;;;;;;;;5015167;28;20054;-73
2023/01/12 08:25:43;;;;;;;28.15;7.60;;;;;;;;;;5014915;28;20042;-73
2023/01/12 08:28:12;;;;;;;16.55;3.35;;;;;;;;;;5015249;28;20091;-73
2023/01/12 08:30:38;;;;;;;12.32;2.80;;;;;;;;;;5014792;28;20042;-73
2023/01/12 08:33:04;;;;;;;21.73;6.57;;;;;;;;;;5014903;28;20072;-73
2023/01/12 08:35:32;;;;;;;14.02;3.13;;;;;;;;;;5014963;28;20041;-74
2023/01/12 08:37:59;;;;;;;16.30;2.72;;;;;;;;;;5014520;28;20044;-74
2023/01/12 08:41:31;;;;;;;12.82;4.18;;;;;;;;;;5014926;28;20043;-74
2023/01/12 08:44:00;;;;;;;12.63;2.58;;;;;;;;;;5014323;28;20050;-74
2023/01/12 08:46:06;;;;;;;11.85;3.72;;;;;;;;;;5014400;28;20053;-73
2023/01/12 08:48:33;;;;;;;20.10;5.57;;;;;;;;;;5015396;28;20053;-73
2023/01/12 08:50:59;;;;;;;13.73;3.03;;;;;;;;;;5014449;28;20057;-73
2023/01/12 08:53:25;;;;;;;14.88;2.17;;;;;;;;;;5014653;28;20076;-73
2023/01/12 08:55:52;;;;;;;14.40;2.75;;;;;;;;;;5014510;28;20100;-73
2023/01/12 08:58:19;;;;;;;14.93;3.10;;;;;;;;;;5014860;28;20095;-73
2023/01/12 09:00:45;;;;;;;8.43;1.88;;;;;;;;;;5015005;28;20064;-73
2023/01/12 09:03:11;;;;;;;9.90;1.80;;;;;;;;;;5014779;28;20049;-73
2023/01/12 09:05:37;;;;;;;9.27;3.35;;;;;;;;;;5014936;28;20065;-73
2023/01/12 09:08:03;;;;;;;11.05;3.95;;;;;;;;;;5014476;28;20049;-73
2023/01/12 09:10:29;;;;;;;10.73;3.08;;;;;;;;;;5014336;28;20586;-74
2023/01/12 09:12:56;;;;;;;12.48;3.30;;;;;;;;;;5014497;28;20050;-73
2023/01/12 09:15:22;;;;;;;17.92;3.75;;;;;;;;;;5014851;28;20070;-73
2023/01/12 09:17:52;;;;;;;14.13;3.83;;;;;;;;;;5046399;28;20508;-74
2023/01/12 09:20:18;;;;;;;9.52;2.38;;;;;;;;;;5014250;28;20042;-73
2023/01/12 09:22:44;;;;;;;9.07;2.15;;;;;;;;;;5014612;28;20053;-73
2023/01/12 09:25:10;;;;;;;11.30;2.20;;;;;;;;;;5014125;28;20185;-74
2023/01/12 09:27:37;;;;;;;12.35;2.75;;;;;;;;;;5014425;28;20049;-73
2023/01/12 09:30:04;;;;;;;8.15;2.25;;;;;;;;;;5014721;28;20120;-73
2023/01/12 09:32:30;;;;;;;12.50;3.13;;;;;;;;;;5014461;28;20057;-73
2023/01/12 09:34:58;;;;;;;10.98;3.25;;;;;;;;;;5014101;28;20037;-73
2023/01/12 09:37:24;;;;;;;11.82;2.40;;;;;;;;;;5014119;28;20120;-74
2023/01/12 09:39:50;;;;;;;9.60;3.40;;;;;;;;;;5014049;28;20042;-73
2023/01/12 09:47:49;;;;;;;8.32;2.80;;;;;;;;;;5013767;28;20137;-73
2023/01/12 09:50:23;;;;;;;10.45;3.15;;;;;;;;;;5014525;28;20069;-73
2023/01/12 09:52:51;;;;;;;15.60;3.22;;;;;;;;;;5014264;28;20080;-73
2023/01/12 09:55:19;;;;;;;16.50;3.22;;;;;;;;;;5015344;28;20065;-73
2023/01/12 09:58:03;;;;;;;11.20;2.85;;;;;;;;;;5018066;28;20124;-73
2023/01/12 10:00:30;;;;;;;14.70;3.70;;;;;;;;;;5018383;28;20078;-73
2023/01/12 10:03:11;;;;;;;16.17;2.72;;;;;;;;;;5017782;28;20049;-73
2023/01/12 10:05:41;;;;;;;12.50;2.78;;;;;;;;;;5049584;28;20425;-73
2023/01/12 10:08:14;;;;;;;12.52;2.95;;;;;;;;;;5017505;28;20037;-73
2023/01/12 10:10:42;;;;;;;14.52;2.58;;;;;;;;;;5017900;28;20054;-73
2023/01/12 10:13:13;;;;;;;12.98;2.08;;;;;;;;;;5017931;28;20104;-73
2023/01/12 10:15:39;;;;;;;7.82;1.75;;;;;;;;;;5017557;28;20073;-74
2023/01/12 10:18:08;;;;;;;12.35;3.20;;;;;;;;;;5017464;28;20041;-73
2023/01/12 10:20:39;;;;;;;11.57;2.20;;;;;;;;;;5017421;28;20046;-73
2023/01/12 10:23:09;;;;;;;16.85;2.92;;;;;;;;;;5017139;28;20041;-75
2023/01/12 10:25:41;;;;;;;14.00;2.88;;;;;;;;;;5017656;28;20064;-73
2023/01/12 10:28:07;;;;;;;14.15;2.92;;;;;;;;;;5017346;28;20077;-73
2023/01/12 10:30:34;;;;;;;13.55;2.35;;;;;;;;;;5016952;28;20049;-73
2023/01/12 10:33:10;;;;;;;15.25;2.60;;;;;;;;;;5017573;28;20061;-73
2023/01/12 10:35:46;;;;;;;10.13;2.13;;;;;;;;;;5017418;28;20125;-73
2023/01/12 10:38:14;;;;;;;14.50;3.38;;;;;;;;;;5016974;28;20046;-74
2023/01/12 10:40:40;;;;;;;11.05;2.63;;;;;;;;;;5017064;28;20119;-74
2023/01/12 10:43:22;;;;;;;11.25;2.60;;;;;;;;;;5016645;28;20060;-73
2023/01/12 10:45:54;;;;;;;11.68;2.70;;;;;;;;;;5016844;28;20041;-74
2023/01/12 10:48:21;;;;;;;12.98;1.85;;;;;;;;;;5016935;28;20042;-73
2023/01/12 10:51:01;;;;;;;14.63;2.42;;;;;;;;;;5017387;28;20048;-73
2023/01/12 10:53:35;;;;;;;15.35;4.32;;;;;;;;;;5016810;28;20037;-74
2023/01/12 10:56:11;;;;;;;13.25;2.17;;;;;;;;;;5017349;28;20050;-73
2023/01/12 10:58:38;;;;;;;13.88;2.35;;;;;;;;;;5016776;28;20053;-73
2023/01/12 11:01:06;;;;;;;19.08;5.20;;;;;;;;;;5016372;28;20077;-73
2023/01/12 11:03:36;;;;;;;9.45;2.88;;;;;;;;;;5016797;28;20073;-73
2023/01/12 11:06:15;;;;;;;13.18;3.10;;;;;;;;;;5016201;28;20133;-73
2023/01/12 11:08:42;;;;;;;14.00;2.97;;;;;;;;;;5016466;28;20132;-73
2023/01/12 11:11:29;;;;;;;18.25;3.30;;;;;;;;;;5016090;28;20041;-73
2023/01/12 11:13:56;;;;;;;14.90;3.30;;;;;;;;;;5016296;28;20056;-74
2023/01/12 11:16:28;;;;;;;12.15;3.38;;;;;;;;;;5016384;28;20046;-73
2023/01/12 11:19:09;;;;;;;9.38;2.60;;;;;;;;;;5016514;28;20041;-73
2023/01/12 11:21:35;;;;;;;;;;;;;;;;;;5016940;28;20053;-73
2023/01/12 11:24:27;;;;;;;9.75;2.20;;;;;;;;;;5015973;28;19921;-73
2023/01/12 11:26:59;;;;;;;12.75;2.15;;;;;;;;;;5016478;28;20076;-73
2023/01/12 11:29:31;;;;;;;10.10;2.40;;;;;;;;;;5016120;28;20129;-73
2023/01/12 11:32:01;;;;;;;8.32;2.35;;;;;;;;;;5015710;28;20048;-74
2023/01/12 11:34:35;;;;;;;13.13;2.25;;;;;;;;;;5016126;28;20065;-73
2023/01/12 11:37:21;;;;;;;15.45;3.15;;;;;;;;;;5016320;28;20052;-73
2023/01/12 11:39:51;;;;;;;15.25;2.30;;;;;;;;;;5015676;28;20471;-73
2023/01/12 11:45:09;;;;;;;16.13;3.05;;;;;;;;;;5015360;28;20048;-73
2023/01/12 11:47:48;;;;;;;12.13;2.88;;;;;;;;;;5015769;28;20048;-73
2023/01/12 11:50:23;;;;;;;15.50;2.15;;;;;;;;;;5016386;28;20480;-74
2023/01/12 11:52:50;;;;;;;11.00;2.08;;;;;;;;;;5015671;28;20050;-73
2023/01/12 11:55:21;;;;;;;14.07;2.40;;;;;;;;;;5015418;28;20041;-74
2023/01/12 11:57:47;;;;;;;12.85;3.15;;;;;;;;;;5015872;28;20069;-73
2023/01/12 12:00:22;;;;;;;9.25;2.63;;;;;;;;;;5015575;28;20041;-73
2023/01/12 12:02:51;;;;;;;14.70;2.63;;;;;;;;;;5015589;28;20197;-73
2023/01/12 12:05:18;;;;;;;9.77;2.13;;;;;;;;;;5015151;28;20112;-73
2023/01/12 12:08:03;;;;;;;10.93;2.03;;;;;;;;;;5014995;28;20589;-73
2023/01/12 12:10:52;;;;;;;9.77;2.28;;;;;;;;;;5015460;28;20037;-73
2023/01/12 12:13:39;;;;;;;17.70;2.67;;;;;;;;;;5015248;28;20049;-74
2023/01/12 12:16:18;;;;;;;19.35;2.55;;;;;;;;;;5015251;28;20120;-73
2023/01/12 12:18:53;;;;;;;10.68;2.10;;;;;;;;;;5014972;28;20046;-73
2023/01/12 12:21:38;;;;;;;13.40;2.20;;;;;;;;;;5015238;28;20041;-73
2023/01/12 12:24:13;;;;;;;7.60;2.08;;;;;;;;;;5014947;28;20574;-73
2023/01/12 12:27:01;;;;;;;10.25;2.30;;;;;;;;;;5014909;28;20417;-73
2023/01/12 12:29:34;;;;;;;13.98;2.55;;;;;;;;;;5015198;28;20073;-73
2023/01/12 12:32:00;;;;;;;13.55;2.00;;;;;;;;;;5015295;28;20060;-74
2023/01/12 12:34:26;;;;;;;14.00;2.10;;;;;;;;;;5015015;28;20485;-73
2023/01/12 12:37:01;;;;;;;13.70;2.42;;;;;;;;;;5015007;28;20034;-74
2023/01/12 12:39:46;;;;;;;8.90;2.17;;;;;;;;;;5014878;28;20046;-73
2023/01/12 12:45:34;;;;;;;15.18;2.40;;;;;;;;;;5014403;28;20503;-73
2023/01/12 12:48:03;;;;;;;14.63;2.25;;;;;;;;;;5014879;28;20041;-73
2023/01/12 12:50:30;;;;;;;10.25;2.53;;;;;;;;;;5014838;28;20045;-73
2023/01/12 12:53:02;;;;;;;13.52;2.70;;;;;;;;;;5014995;28;20505;-73
2023/01/12 12:55:29;;;;;;;10.45;2.15;;;;;;;;;;5015325;28;20056;-73
2023/01/12 12:58:01;;;;;;;10.35;2.50;;;;;;;;;;5014741;28;20038;-73
2023/01/12 13:00:42;;;;;;;15.65;3.13;;;;;;;;;;5014767;28;20046;-73
2023/01/12 13:03:08;;;;;;;10.40;1.88;;;;;;;;;;5015157;28;20076;-73
2023/01/12 13:05:45;;;;;;;7.18;2.25;;;;;;;;;;5014624;28;20068;-73
2023/01/12 13:08:16;;;;;;;10.18;2.58;;;;;;;;;;5014195;28;20037;-73
2023/01/12 13:10:48;;;;;;;15.35;2.70;;;;;;;;;;5014871;28;20108;-73
2023/01/12 13:13:28;;;;;;;13.88;2.58;;;;;;;;;;5014578;28;20046;-74
2023/01/12 13:16:12;;;;;;;12.30;3.17;;;;;;;;;;5015211;28;20046;-73
2023/01/12 13:18:50;;;;;;;9.85;2.85;;;;;;;;;;5014523;28;20254;-74
2023/01/12 13:21:26;;;;;;;15.40;2.70;;;;;;;;;;5014542;28;20119;-73
2023/01/12 13:24:12;;;;;;;9.55;2.03;;;;;;;;;;5014141;28;20124;-73
2023/01/12 13:26:42;;;;;;;12.05;2.55;;;;;;;;;;5012933;28;20615;-73
2023/01/12 13:29:23;;;;;;;12.77;5.10;;;;;;;;;;5014448;28;20116;-73
2023/01/12 13:31:56;;;;;;;11.32;3.35;;;;;;;;;;5018799;28;20072;-73
2023/01/12 13:34:31;;;;;;;7.15;2.00;;;;;;;;;;5018413;28;20064;-73
2023/01/12 13:37:15;;;;;;;12.10;2.63;;;;;;;;;;5017964;28;20091;-73
2023/01/12 13:39:47;;;;;;;11.20;2.60;;;;;;;;;;5017901;28;20392;-73
2023/01/12 13:45:01;;;;;;;8.55;1.90;;;;;;;;;;5017748;28;20420;-74
2023/01/12 13:47:31;;;;;;;9.68;2.08;;;;;;;;;;5018046;28;20046;-73
2023/01/12 13:49:59;;;;;;;14.73;3.65;;;;;;;;;;5018027;28;20049;-73
2023/01/12 13:52:30;;;;;;;13.82;3.10;;;;;;;;;;5018096;28;20076;-73
2023/01/12 13:54:57;;;;;;;11.43;3.00;;;;;;;;;;5017961;28;20046;-73
2023/01/12 13:57:25;;;;;;;25.60;5.75;;;;;;;;;;5017837;28;20119;-73
2023/01/12 14:00:03;;;;;;;10.68;3.60;;;;;;;;;;5017728;28;20038;-73
2023/01/12 14:02:31;;;;;;;8.98;2.70;;;;;;;;;;5017997;28;20053;-73
2023/01/12 14:05:18;;;;;;;13.32;3.17;;;;;;;;;;5017749;28;20073;-73
2023/01/12 14:08:02;;;;;;;7.95;2.33;;;;;;;;;;5017869;28;20046;-73
2023/01/12 14:10:31;;;;;;;11.13;2.40;;;;;;;;;;5018194;28;20041;-73
2023/01/12 14:13:09;;;;;;;8.75;2.42;;;;;;;;;;5017498;28;20050;-73
2023/01/12 14:18:26;;;;;;;8.27;1.65;;;;;;;;;;5017332;28;20041;-73
2023/01/12 14:20:53;;;;;;;8.60;1.50;;;;;;;;;;5017243;28;20489;-73
2023/01/12 14:23:24;;;;;;;8.30;2.10;;;;;;;;;;5017216;28;20505;-74
2023/01/12 14:26:12;;;;;;;8.80;1.67;;;;;;;;;;5017666;28;20207;-73
2023/01/12 14:28:39;;;;;;;12.32;2.53;;;;;;;;;;5017484;28;20077;-73
2023/01/12 14:31:07;;;;;;;12.65;3.33;;;;;;;;;;5016979;28;20374;-74
2023/01/12 14:33:34;;;;;;;11.18;3.28;;;;;;;;;;5017541;28;20519;-73
2023/01/12 14:36:12;;;;;;;12.63;3.60;;;;;;;;;;5017161;28;20053;-73
2023/01/12 14:38:42;;;;;;;12.93;3.55;;;;;;;;;;5017115;28;20079;-73
2023/01/12 14:46:23;;;;;;;15.27;5.95;;;;;;;;;;5016663;28;20045;-73
2023/01/12 14:46:44;;;;;;;17.70;5.97;;;;;;;;;;5016729;28;20397;-73
2023/01/12 14:49:27;;;;;;;17.70;5.50;;;;;;;;;;5016687;28;20056;-73
2023/01/12 14:51:57;;;;;;;12.50;2.78;;;;;;;;;;5017007;28;20076;-73
2023/01/12 14:54:28;;;;;;;12.27;3.28;;;;;;;;;;5016739;28;20069;-73
2023/01/12 14:56:55;;;;;;;;;;;;;;;;;;5016921;28;20393;-73
2023/01/12 14:59:28;;;;;;;17.58;6.10;;;;;;;;;;5016737;28;19909;-73
2023/01/12 15:02:13;;;;;;;15.35;3.70;;;;;;;;;;5016985;28;20053;-73
2023/01/12 15:04:57;;;;;;;15.35;4.03;;;;;;;;;;5016080;28;20461;-74
2023/01/12 15:07:26;;;;;;;13.77;4.18;;;;;;;;;;5016383;28;20492;-74
2023/01/12 15:09:55;;;;;;;16.92;4.32;;;;;;;;;;5016529;28;20493;-73
2023/01/12 15:12:44;;;;;;;10.32;2.67;;;;;;;;;;5016270;28;20057;-73
2023/01/12 15:15:16;;;;;;;11.35;4.00;;;;;;;;;;5015717;28;20046;-73
2023/01/12 15:25:57;;;;;;;10.70;3.53;;;;;;;;;;5016043;28;20120;-73
2023/01/12 15:28:23;;;;;;;13.50;2.03;;;;;;;;;;5016140;28;20038;-73
2023/01/12 15:30:51;;;;;;;14.10;4.03;;;;;;;;;;5016757;28;20195;-73
2023/01/12 15:33:17;;;;;;;8.18;2.90;;;;;;;;;;5016720;28;20084;-73
2023/01/12 15:35:47;;;;;;;16.88;3.72;;;;;;;;;;5016088;28;20173;-73
2023/01/12 15:38:15;;;;;;;9.18;2.70;;;;;;;;;;5016494;28;20044;-73
2023/01/12 15:40:41;;;;;;;17.90;3.80;;;;;;;;;;5016580;28;20034;-73
2023/01/12 15:43:15;;;;;;;12.27;3.53;;;;;;;;;;5016650;28;20053;-73
2023/01/12 15:45:42;;;;;;;7.47;2.47;;;;;;;;;;5015871;28;20049;-73
2023/01/12 15:48:08;;;;;;;9.10;2.13;;;;;;;;;;5015847;28;20042;-73